createdAt,value
2023-12-04T00:01:17.140Z,31.27
2023-12-04T00:03:43.976Z,31.30
2023-12-04T00:06:14.400Z,30.23
2023-12-04T00:08:41.670Z,28.33
2023-12-04T00:11:08.468Z,29.10
2023-12-04T00:13:36.121Z,29.55
2023-12-04T00:16:03.110Z,27.58
2023-12-04T00:18:30.112Z,29.90
2023-12-04T00:20:57.633Z,30.30
2023-12-04T00:23:24.338Z,25.23
2023-12-04T00:25:50.968Z,25.60
2023-12-04T00:28:17.564Z,29.20
2023-12-04T00:30:44.523Z,26.48
2023-12-04T00:33:11.250Z,30.40
2023-12-04T00:35:37.852Z,24.70
2023-12-04T00:38:04.585Z,25.23
2023-12-04T00:40:31.262Z,27.70
2023-12-04T00:42:58.099Z,24.35
2023-12-04T00:45:25.385Z,27.73
2023-12-04T00:47:52.055Z,26.13
2023-12-04T00:50:18.825Z,23.88
2023-12-04T00:52:45.566Z,23.33
2023-12-04T00:55:12.377Z,22.75
2023-12-04T00:57:39.010Z,27.03
2023-12-04T01:00:06.764Z,25.65
2023-12-04T01:02:33.482Z,24.67
2023-12-04T01:05:00.974Z,22.13
2023-12-04T01:07:28.382Z,25.05
2023-12-04T01:09:55.136Z,22.73
2023-12-04T01:12:22.356Z,21.00
2023-12-04T01:14:49.016Z,23.77
2023-12-04T01:17:15.635Z,22.35
2023-12-04T01:19:42.329Z,22.00
2023-12-04T01:22:09.178Z,20.57
2023-12-04T01:24:35.924Z,20.67
2023-12-04T01:27:04.412Z,20.83
2023-12-04T01:29:33.066Z,20.60
2023-12-04T01:31:59.737Z,22.42
2023-12-04T01:34:26.735Z,22.30
2023-12-04T01:36:53.623Z,21.05
2023-12-04T01:39:20.301Z,21.27
2023-12-04T01:41:46.853Z,20.60
2023-12-04T01:44:13.510Z,18.38
2023-12-04T01:46:40.185Z,18.63
2023-12-04T01:49:07.202Z,18.45
2023-12-04T01:51:34.365Z,17.60
2023-12-04T01:54:03.801Z,22.40
2023-12-04T01:56:31.299Z,20.65
2023-12-04T01:58:59.828Z,17.77
2023-12-04T02:01:28.448Z,20.25
2023-12-04T02:03:55.575Z,18.15
2023-12-04T02:06:23.039Z,18.58
2023-12-04T02:08:49.987Z,20.13
2023-12-04T02:11:16.732Z,18.10
2023-12-04T02:13:43.866Z,17.58
2023-12-04T02:16:13.036Z,17.10
2023-12-04T02:18:40.154Z,16.83
2023-12-04T02:21:07.087Z,18.67
2023-12-04T02:23:33.940Z,17.30
2023-12-04T02:26:10.950Z,16.65
2023-12-04T02:28:39.250Z,16.17
2023-12-04T02:31:08.049Z,16.00
2023-12-04T02:33:37.021Z,16.60
2023-12-04T02:36:06.432Z,15.43
2023-12-04T02:38:33.475Z,16.83
2023-12-04T02:41:00.450Z,16.80
2023-12-04T02:43:27.138Z,16.08
2023-12-04T02:45:53.794Z,15.13
2023-12-04T02:48:20.455Z,14.27
2023-12-04T02:50:47.120Z,14.98
2023-12-04T02:53:13.733Z,17.42
2023-12-04T02:55:40.445Z,15.63
2023-12-04T02:58:07.047Z,16.35
2023-12-04T03:00:33.766Z,15.77
2023-12-04T03:03:00.539Z,16.85
2023-12-04T03:05:27.244Z,16.55
2023-12-04T03:07:54.358Z,16.08
2023-12-04T03:10:21.165Z,14.00
2023-12-04T03:12:47.965Z,15.67
2023-12-04T03:15:14.756Z,15.68
2023-12-04T03:17:41.469Z,15.77
2023-12-04T03:20:09.906Z,14.27
2023-12-04T03:22:37.731Z,15.90
2023-12-04T03:25:04.975Z,15.00
2023-12-04T03:27:31.789Z,15.13
2023-12-04T03:29:58.622Z,13.82
2023-12-04T03:32:25.289Z,14.32
2023-12-04T03:34:52.252Z,15.82
2023-12-04T03:37:20.058Z,12.80
2023-12-04T03:39:46.779Z,14.32
2023-12-04T03:42:13.584Z,15.88
2023-12-04T03:44:40.176Z,13.75
2023-12-04T03:47:06.790Z,13.30
2023-12-04T03:49:33.511Z,12.93
2023-12-04T03:52:00.318Z,14.32
2023-12-04T03:54:27.019Z,14.48
2023-12-04T03:56:54.472Z,14.70
2023-12-04T03:59:21.312Z,12.48
2023-12-04T04:01:47.965Z,13.73
2023-12-04T04:04:14.914Z,12.35
2023-12-04T04:06:41.601Z,13.15
2023-12-04T04:09:08.387Z,13.00
2023-12-04T04:11:36.505Z,11.77
2023-12-04T04:14:03.326Z,13.87
2023-12-04T04:16:30.052Z,11.63
2023-12-04T04:18:57.139Z,12.35
2023-12-04T04:21:23.917Z,12.65
2023-12-04T04:23:50.631Z,13.18
2023-12-04T04:26:17.262Z,13.57
2023-12-04T04:28:43.916Z,12.27
2023-12-04T04:31:10.573Z,12.25
2023-12-04T04:33:37.469Z,12.10
2023-12-04T04:36:04.485Z,13.05
2023-12-04T04:38:31.282Z,12.13
2023-12-04T04:40:58.100Z,12.35
2023-12-04T04:43:24.741Z,11.80
2023-12-04T04:45:52.058Z,12.02
2023-12-04T04:48:18.817Z,10.75
2023-12-04T04:50:45.461Z,12.30
2023-12-04T04:53:12.217Z,12.63
2023-12-04T04:55:47.522Z,12.25
2023-12-04T04:58:19.115Z,12.52
2023-12-04T05:00:46.935Z,12.35
2023-12-04T05:03:13.635Z,11.77
2023-12-04T05:05:40.523Z,11.57
2023-12-04T05:08:07.156Z,12.00
2023-12-04T05:10:33.972Z,11.98
2023-12-04T05:13:00.847Z,11.32
2023-12-04T05:15:27.488Z,15.60
2023-12-04T05:17:54.723Z,9.77
2023-12-04T05:20:21.422Z,12.90
2023-12-04T05:22:48.701Z,11.23
2023-12-04T05:25:15.549Z,11.68
2023-12-04T05:27:42.358Z,10.63
2023-12-04T05:30:09.396Z,9.40
2023-12-04T05:32:36.098Z,11.32
2023-12-04T05:35:02.793Z,11.43
2023-12-04T05:37:29.448Z,10.88
2023-12-04T05:39:56.229Z,12.17
2023-12-04T05:42:22.887Z,10.73
2023-12-04T05:44:49.465Z,10.48
2023-12-04T05:47:16.168Z,11.52
2023-12-04T05:49:42.841Z,10.27
2023-12-04T05:52:09.690Z,9.70
2023-12-04T05:54:37.201Z,11.02
2023-12-04T05:57:04.174Z,10.27
2023-12-04T05:59:30.767Z,11.50
2023-12-04T06:01:57.581Z,11.90
2023-12-04T06:04:24.240Z,10.53
2023-12-04T06:06:50.953Z,12.95
2023-12-04T06:09:17.849Z,10.43
2023-12-04T06:11:47.464Z,10.20
2023-12-04T06:14:14.476Z,10.93
2023-12-04T06:16:41.119Z,10.67
2023-12-04T06:19:07.951Z,11.15
2023-12-04T06:21:34.695Z,10.25
2023-12-04T06:24:04.822Z,10.20
2023-12-04T06:26:34.010Z,11.57
2023-12-04T06:29:01.071Z,12.60
2023-12-04T06:31:28.379Z,10.30
2023-12-04T06:33:55.706Z,8.68
2023-12-04T06:36:22.976Z,9.32
2023-12-04T06:38:53.216Z,11.43
2023-12-04T06:41:22.525Z,12.13
2023-12-04T06:43:52.486Z,11.32
2023-12-04T06:46:21.948Z,11.20
2023-12-04T06:48:49.753Z,11.48
2023-12-04T06:51:16.580Z,8.95
2023-12-04T06:53:43.213Z,8.27
2023-12-04T06:56:10.504Z,8.73
2023-12-04T06:58:37.147Z,8.45
2023-12-04T07:01:05.261Z,8.68
2023-12-04T07:03:32.289Z,8.98
2023-12-04T07:05:59.062Z,9.83
2023-12-04T07:08:26.194Z,9.25
2023-12-04T07:10:53.224Z,8.73
2023-12-04T07:13:20.381Z,11.55
2023-12-04T07:15:47.310Z,10.30
2023-12-04T07:18:14.088Z,8.23
2023-12-04T07:20:40.694Z,8.68
2023-12-04T07:23:07.326Z,10.18
2023-12-04T07:25:34.000Z,9.07
2023-12-04T07:28:00.848Z,8.75
2023-12-04T07:30:28.264Z,7.97
2023-12-04T07:32:55.055Z,10.50
2023-12-04T07:35:22.576Z,10.00
2023-12-04T07:37:49.931Z,8.23
2023-12-04T07:40:16.832Z,9.75
2023-12-04T07:42:44.002Z,8.67
2023-12-04T07:45:11.644Z,9.45
2023-12-04T07:47:38.421Z,9.65
2023-12-04T07:50:05.517Z,8.40
2023-12-04T07:52:32.282Z,9.10
2023-12-04T07:54:59.462Z,8.33
2023-12-04T07:57:26.112Z,8.05
2023-12-04T07:59:52.801Z,7.82
2023-12-04T08:02:19.540Z,8.75
2023-12-04T08:04:46.116Z,8.05
2023-12-04T08:07:12.965Z,7.13
2023-12-04T08:09:40.420Z,7.88
2023-12-04T08:12:07.412Z,7.70
2023-12-04T08:14:34.627Z,7.50
2023-12-04T08:17:01.437Z,7.35
2023-12-04T08:19:28.279Z,6.93
2023-12-04T08:21:55.002Z,7.53
2023-12-04T08:24:22.529Z,9.98
2023-12-04T08:26:51.744Z,8.38
2023-12-04T08:29:18.719Z,8.18
2023-12-04T08:31:45.463Z,8.70
2023-12-04T08:34:12.257Z,7.55
2023-12-04T08:36:45.317Z,8.27
2023-12-04T08:39:14.188Z,8.10
2023-12-04T08:41:47.657Z,6.63
2023-12-04T08:44:18.362Z,7.90
2023-12-04T08:46:45.834Z,7.32
2023-12-04T08:49:12.809Z,9.07
2023-12-04T08:51:39.558Z,7.78
2023-12-04T08:56:38.018Z,6.97
2023-12-04T08:59:04.850Z,6.80
2023-12-04T09:01:31.756Z,6.93
2023-12-04T09:03:59.868Z,7.40
2023-12-04T09:08:24.717Z,8.27
2023-12-04T09:09:14.528Z,7.13
2023-12-04T09:11:43.424Z,7.10
2023-12-04T09:14:10.966Z,7.68
2023-12-04T09:16:38.667Z,7.18
2023-12-04T09:19:05.764Z,7.32
2023-12-04T09:21:32.836Z,7.40
2023-12-04T09:23:59.672Z,6.90
2023-12-04T09:26:26.365Z,7.53
2023-12-04T09:28:53.386Z,6.40
2023-12-04T09:31:20.941Z,6.93
2023-12-04T09:33:50.979Z,6.17
2023-12-04T09:36:17.790Z,6.60
2023-12-04T09:38:44.872Z,6.80
2023-12-04T09:41:13.280Z,6.93
2023-12-04T09:43:40.416Z,6.50
2023-12-04T09:46:08.447Z,6.73
2023-12-04T09:48:35.887Z,6.28
2023-12-04T09:51:03.462Z,6.38
2023-12-04T09:53:31.352Z,6.53
2023-12-04T09:56:03.743Z,8.57
2023-12-04T09:58:33.338Z,6.73
2023-12-04T10:01:02.056Z,6.15
2023-12-04T10:03:30.962Z,6.72
2023-12-04T10:05:58.485Z,6.05
2023-12-04T10:08:25.251Z,5.70
2023-12-04T10:10:52.078Z,6.90
2023-12-04T10:13:55.225Z,6.63
2023-12-04T10:16:05.748Z,6.15
2023-12-04T10:18:33.075Z,6.25
2023-12-04T10:21:01.172Z,6.82
2023-12-04T10:23:43.851Z,6.97
2023-12-04T10:26:10.779Z,6.57
2023-12-04T10:28:37.522Z,6.60
2023-12-04T10:31:08.037Z,7.22
2023-12-04T10:33:34.867Z,6.68
2023-12-04T10:36:01.772Z,5.90
2023-12-04T10:38:28.686Z,7.05
2023-12-04T10:40:55.419Z,7.00
2023-12-04T10:43:25.946Z,5.70
2023-12-04T10:45:52.585Z,6.25
2023-12-04T10:48:20.980Z,7.23
2023-12-04T10:50:50.322Z,6.25
2023-12-04T10:53:18.134Z,6.70
2023-12-04T10:55:46.037Z,6.65
2023-12-04T10:58:15.950Z,6.72
2023-12-04T11:00:49.991Z,5.83
2023-12-04T11:03:24.387Z,6.82
2023-12-04T11:05:56.877Z,6.60
2023-12-04T11:08:24.405Z,6.57
2023-12-04T11:11:13.997Z,6.57
2023-12-04T11:13:49.582Z,7.17
2023-12-04T11:16:24.113Z,6.00
2023-12-04T11:19:04.306Z,5.80
2023-12-04T11:21:33.600Z,6.38
2023-12-04T11:24:01.686Z,6.95
2023-12-04T11:26:29.397Z,5.90
2023-12-04T11:28:56.863Z,6.35
2023-12-04T11:31:24.234Z,6.63
2023-12-04T11:33:51.119Z,6.60
2023-12-04T11:36:18.390Z,6.32
2023-12-04T11:38:50.423Z,6.57
2023-12-04T11:41:24.775Z,5.95
2023-12-04T11:43:56.519Z,6.47
2023-12-04T11:46:26.158Z,5.80
2023-12-04T11:48:57.741Z,6.07
2023-12-04T11:51:39.853Z,5.90
2023-12-04T11:54:16.715Z,6.32
2023-12-04T11:57:10.125Z,6.15
2023-12-04T11:59:40.117Z,6.10
2023-12-04T12:02:12.317Z,7.25
2023-12-04T12:04:39.571Z,6.13
2023-12-04T12:07:07.274Z,6.30
2023-12-04T12:09:35.055Z,5.72
2023-12-04T12:12:03.626Z,5.45
2023-12-04T12:14:31.165Z,5.75
2023-12-04T12:17:01.117Z,5.90
2023-12-04T12:19:28.727Z,6.18
2023-12-04T12:21:56.065Z,6.18
2023-12-04T12:24:24.964Z,5.60
2023-12-04T12:26:51.806Z,5.82
2023-12-04T12:29:18.868Z,5.67
2023-12-04T12:31:48.372Z,6.40
2023-12-04T12:34:15.413Z,7.20
2023-12-04T12:36:42.662Z,6.25
2023-12-04T12:39:10.157Z,6.57
2023-12-04T12:41:37.154Z,5.70
2023-12-04T12:44:04.763Z,6.22
2023-12-04T12:46:31.548Z,5.57
2023-12-04T12:48:59.590Z,6.72
2023-12-04T12:51:27.489Z,5.60
2023-12-04T12:53:55.260Z,6.10
2023-12-04T12:56:22.903Z,6.07
2023-12-04T12:58:50.442Z,6.13
2023-12-04T13:01:17.282Z,6.20
2023-12-04T13:03:48.555Z,5.75
2023-12-04T13:06:15.592Z,6.20
2023-12-04T13:08:42.415Z,5.85
2023-12-04T13:11:09.868Z,5.68
2023-12-04T13:13:36.757Z,5.72
2023-12-04T13:16:03.640Z,5.82
2023-12-04T13:18:35.388Z,5.87
2023-12-04T13:21:03.029Z,5.70
2023-12-04T13:23:29.787Z,5.80
2023-12-04T13:25:56.614Z,4.70
2023-12-04T13:28:28.194Z,5.65
2023-12-04T13:31:02.487Z,5.60
2023-12-04T13:33:29.172Z,6.68
2023-12-04T13:35:55.914Z,5.78
2023-12-04T13:38:26.426Z,5.93
2023-12-04T13:41:01.290Z,6.22
2023-12-04T13:43:47.012Z,5.67
2023-12-04T13:46:13.926Z,5.53
2023-12-04T13:48:42.189Z,5.88
2023-12-04T13:51:13.864Z,5.60
2023-12-04T13:53:50.456Z,6.07
2023-12-04T13:56:26.700Z,5.30
2023-12-04T13:58:59.851Z,5.20
2023-12-04T14:01:30.391Z,5.38
2023-12-04T14:04:04.027Z,5.88
2023-12-04T14:06:31.267Z,5.28
2023-12-04T14:08:59.721Z,4.77
2023-12-04T14:11:26.538Z,6.40
2023-12-04T14:13:53.250Z,5.13
2023-12-04T14:16:20.016Z,5.50
2023-12-04T14:18:46.878Z,6.00
2023-12-04T14:21:13.648Z,5.47
2023-12-04T14:23:40.523Z,6.03
2023-12-04T14:26:07.446Z,6.18
2023-12-04T14:28:42.378Z,5.43
2023-12-04T14:31:14.416Z,5.15
2023-12-04T14:33:43.343Z,6.13
2023-12-04T14:36:15.476Z,5.40
2023-12-04T14:38:42.270Z,4.60
2023-12-04T14:41:10.688Z,5.32
2023-12-04T14:43:39.983Z,4.90
2023-12-04T14:46:09.593Z,5.50
2023-12-04T14:48:40.106Z,6.07
2023-12-04T14:51:07.921Z,5.80
2023-12-04T14:53:46.851Z,5.28
2023-12-04T14:56:35.978Z,5.20
2023-12-04T14:59:06.320Z,5.27
2023-12-04T15:01:52.257Z,5.55
2023-12-04T15:04:37.425Z,5.63
2023-12-04T15:07:24.425Z,5.43
2023-12-04T15:10:06.502Z,5.68
2023-12-04T15:12:36.346Z,5.40
2023-12-04T15:15:41.807Z,6.82
2023-12-04T15:18:27.856Z,5.22
2023-12-04T15:20:55.309Z,5.20
2023-12-04T15:23:22.022Z,5.38
2023-12-04T15:25:48.964Z,6.43
2023-12-04T15:28:16.006Z,5.43
2023-12-04T15:30:43.210Z,4.90
2023-12-04T15:33:10.136Z,5.55
2023-12-04T15:35:38.631Z,5.63
2023-12-04T15:38:05.750Z,5.20
2023-12-04T15:40:32.696Z,5.97
2023-12-04T15:42:59.600Z,5.00
2023-12-04T15:45:27.142Z,6.07
2023-12-04T15:47:54.148Z,6.25
2023-12-04T15:50:23.837Z,10.10
2023-12-04T15:52:50.826Z,10.88
2023-12-04T15:55:17.596Z,13.50
2023-12-04T15:57:44.326Z,13.07
2023-12-04T16:00:14.386Z,12.13
2023-12-04T16:02:41.680Z,11.60
2023-12-04T16:05:12.477Z,11.73
2023-12-04T16:07:39.949Z,10.52
2023-12-04T16:10:10.148Z,10.93
2023-12-04T16:12:37.736Z,9.98
2023-12-04T16:15:11.298Z,8.57
2023-12-04T16:17:41.231Z,7.80
2023-12-04T16:20:11.587Z,7.75
2023-12-04T16:22:44.130Z,9.07
2023-12-04T16:25:12.733Z,8.45
2023-12-04T16:27:40.015Z,7.97
2023-12-04T16:30:07.952Z,7.38
2023-12-04T16:32:35.581Z,8.40
2023-12-04T16:35:02.792Z,6.85
2023-12-04T16:37:30.038Z,7.32
2023-12-04T16:39:56.909Z,8.03
2023-12-04T16:42:23.664Z,6.38
2023-12-04T16:44:50.414Z,6.97
2023-12-04T16:47:17.124Z,7.15
2023-12-04T16:49:44.789Z,8.40
2023-12-04T16:52:16.253Z,8.70
2023-12-04T16:54:43.477Z,6.90
2023-12-04T16:57:11.597Z,6.20
2023-12-04T16:59:38.843Z,7.63
2023-12-04T17:02:06.947Z,6.65
2023-12-04T17:04:34.265Z,7.13
2023-12-04T17:07:01.887Z,7.20
2023-12-04T17:09:28.731Z,7.43
2023-12-04T17:11:56.099Z,7.97
2023-12-04T17:14:23.044Z,6.20
2023-12-04T17:16:50.171Z,9.53
2023-12-04T17:19:17.137Z,8.07
2023-12-04T17:21:44.028Z,9.20
2023-12-04T17:24:11.189Z,6.15
2023-12-04T17:26:38.346Z,6.05
2023-12-04T17:29:05.030Z,6.80
2023-12-04T17:31:32.646Z,6.63
2023-12-04T17:33:59.563Z,6.65
2023-12-04T17:36:26.452Z,7.95
2023-12-04T17:38:53.614Z,6.00
2023-12-04T17:41:20.589Z,6.93
2023-12-04T17:43:47.324Z,6.25
2023-12-04T17:46:14.362Z,6.30
2023-12-04T17:48:42.345Z,7.50
2023-12-04T17:51:15.983Z,10.32
2023-12-04T17:53:43.357Z,9.73
2023-12-04T17:56:11.176Z,7.65
2023-12-04T17:58:37.836Z,11.30
2023-12-04T18:01:04.795Z,9.10
2023-12-04T18:03:31.725Z,10.27
2023-12-04T18:05:58.753Z,10.10
2023-12-04T18:08:29.040Z,7.85
2023-12-04T18:10:56.325Z,6.60
2023-12-04T18:13:23.590Z,6.38
2023-12-04T18:15:50.530Z,6.78
2023-12-04T18:18:18.942Z,6.53
2023-12-04T18:20:48.903Z,7.38
2023-12-04T18:23:15.574Z,7.20
2023-12-04T18:25:42.602Z,7.78
2023-12-04T18:28:11.569Z,6.20
2023-12-04T18:30:39.058Z,9.80
2023-12-04T18:33:07.419Z,7.03
2023-12-04T18:35:34.781Z,6.88
2023-12-04T18:38:12.084Z,6.22
2023-12-04T18:40:39.234Z,7.97
2023-12-04T18:43:07.003Z,7.73
2023-12-04T18:45:35.409Z,6.85
2023-12-04T18:48:06.629Z,8.43
2023-12-04T18:50:34.190Z,8.88
2023-12-04T18:53:02.045Z,7.75
2023-12-04T18:55:29.424Z,8.57
2023-12-04T18:57:56.177Z,10.90
2023-12-04T19:00:25.756Z,8.43
2023-12-04T19:02:53.825Z,8.73
2023-12-04T19:05:21.658Z,10.73
2023-12-04T19:07:48.455Z,11.47
2023-12-04T19:10:15.456Z,16.77
2023-12-04T19:12:42.210Z,13.35
2023-12-04T19:15:11.030Z,13.00
2023-12-04T19:17:38.114Z,14.02
2023-12-04T19:20:07.326Z,15.37
2023-12-04T19:22:34.067Z,16.83
2023-12-04T19:25:00.717Z,17.55
2023-12-04T19:27:28.174Z,15.80
2023-12-04T19:29:55.471Z,18.35
2023-12-04T19:32:23.035Z,18.60
2023-12-04T19:34:50.251Z,19.52
2023-12-04T19:37:16.916Z,18.65
2023-12-04T19:39:44.971Z,23.65
2023-12-04T19:42:12.762Z,20.80
2023-12-04T19:44:43.987Z,20.10
2023-12-04T19:47:10.748Z,19.95
2023-12-04T19:49:45.580Z,20.10
2023-12-04T19:52:12.348Z,21.70
2023-12-04T19:54:43.136Z,22.02
2023-12-04T19:57:09.891Z,22.13
2023-12-04T19:59:38.540Z,25.27
2023-12-04T20:02:05.995Z,25.20
2023-12-04T20:04:33.325Z,24.05
2023-12-04T20:07:00.440Z,28.88
2023-12-04T20:09:27.493Z,25.07
2023-12-04T20:11:55.745Z,28.00
2023-12-04T20:14:23.800Z,26.60
2023-12-04T20:16:53.252Z,25.98
2023-12-04T20:19:20.538Z,29.50
2023-12-04T20:21:47.532Z,28.50
2023-12-04T20:24:16.709Z,28.63
2023-12-04T20:26:43.843Z,34.70
2023-12-04T20:29:10.573Z,43.25
2023-12-04T20:31:37.486Z,46.72
2023-12-04T20:34:04.812Z,57.17
2023-12-04T20:36:31.584Z,53.72
2023-12-04T20:38:58.422Z,58.38
2023-12-04T20:41:25.148Z,62.53
2023-12-04T20:43:54.026Z,68.40
2023-12-04T20:46:21.957Z,73.13
2023-12-04T20:48:48.894Z,74.90
2023-12-04T20:51:15.949Z,73.00
2023-12-04T20:53:42.948Z,69.13
2023-12-04T20:56:10.157Z,72.72
2023-12-04T20:58:36.779Z,71.93
2023-12-04T21:01:04.224Z,71.90
2023-12-04T21:03:31.482Z,70.93
2023-12-04T21:05:58.671Z,67.82
2023-12-04T21:08:26.283Z,71.45
2023-12-04T21:10:53.266Z,67.70
2023-12-04T21:13:19.951Z,68.32
2023-12-04T21:15:48.069Z,71.40
2023-12-04T21:18:16.338Z,65.43
2023-12-04T21:20:45.718Z,69.95
2023-12-04T21:23:12.492Z,69.93
2023-12-04T21:25:39.552Z,67.82
2023-12-04T21:28:07.404Z,67.20
2023-12-04T21:30:34.877Z,61.28
2023-12-04T21:33:02.002Z,63.58
2023-12-04T21:35:29.887Z,61.90
2023-12-04T21:37:56.671Z,61.75
2023-12-04T21:40:24.218Z,66.43
2023-12-04T21:42:50.951Z,63.15
2023-12-04T21:45:19.828Z,59.00
2023-12-04T21:47:48.016Z,58.37
2023-12-04T21:50:14.819Z,58.65
2023-12-04T21:52:41.548Z,58.03
2023-12-04T21:55:09.403Z,56.97
2023-12-04T21:57:37.270Z,57.35
2023-12-04T22:00:22.471Z,56.97
2023-12-04T22:02:49.311Z,57.80
2023-12-04T22:05:16.159Z,56.85
2023-12-04T22:07:42.879Z,55.13
2023-12-04T22:10:10.051Z,53.60
2023-12-04T22:12:36.734Z,53.30
2023-12-04T22:15:04.956Z,51.33
2023-12-04T22:17:31.871Z,53.10
2023-12-04T22:19:59.159Z,52.10
2023-12-04T22:22:26.520Z,52.45
2023-12-04T22:24:54.020Z,51.23
2023-12-04T22:27:21.670Z,52.88
2023-12-04T22:29:48.711Z,49.05
2023-12-04T22:32:15.437Z,48.13
2023-12-04T22:34:42.348Z,48.28
2023-12-04T22:37:09.132Z,47.23
2023-12-04T22:39:35.827Z,46.72
2023-12-04T22:42:02.611Z,46.78
2023-12-04T22:44:31.372Z,42.85
2023-12-04T22:46:58.336Z,40.05
2023-12-04T22:49:25.168Z,40.67
2023-12-04T22:51:52.316Z,38.03
2023-12-04T22:54:19.263Z,40.08
2023-12-04T22:56:46.003Z,33.80
2023-12-04T22:59:12.978Z,33.90
2023-12-04T23:01:39.701Z,35.57
2023-12-04T23:04:06.803Z,34.25
2023-12-04T23:06:33.686Z,34.60
2023-12-04T23:09:00.582Z,35.15
2023-12-04T23:11:27.273Z,33.67
2023-12-04T23:13:54.116Z,31.47
2023-12-04T23:16:23.463Z,33.17
2023-12-04T23:18:51.221Z,29.92
2023-12-04T23:21:18.340Z,28.30
2023-12-04T23:23:45.247Z,31.02
2023-12-04T23:26:11.875Z,28.47
2023-12-04T23:28:39.879Z,30.90
2023-12-04T23:31:07.124Z,29.52
2023-12-04T23:33:33.956Z,29.52
2023-12-04T23:36:00.693Z,31.95
2023-12-04T23:38:27.363Z,30.07
2023-12-04T23:40:54.172Z,30.58
2023-12-04T23:43:21.226Z,29.08
2023-12-04T23:45:53.414Z,28.23
2023-12-04T23:48:24.955Z,30.83
2023-12-04T23:50:52.455Z,25.80
2023-12-04T23:53:19.522Z,27.20
2023-12-04T23:55:46.196Z,28.85
2023-12-04T23:58:13.017Z,28.70
